createdAt,value
2016-04-27T00:01:08.843Z,4.03
2016-04-27T00:02:02.468Z,4.06
2016-04-27T00:03:15.396Z,4.07
2016-04-27T00:03:49.787Z,4.06
2016-04-27T00:04:49.696Z,4.07
2016-04-27T00:05:50.213Z,4.06
2016-04-27T00:06:53.138Z,4.18
2016-04-27T00:08:02.484Z,4.03
2016-04-27T00:08:56.019Z,4.16
2016-04-27T00:10:08.959Z,4.21
2016-04-27T00:10:49.851Z,4.14
2016-04-27T00:11:49.792Z,4.13
2016-04-27T00:12:49.826Z,4.2
2016-04-27T00:13:56.095Z,4.2
2016-04-27T00:14:49.909Z,4.13
2016-04-27T00:15:49.865Z,4.13
2016-04-27T00:16:49.883Z,4.02
2016-04-27T00:17:56.152Z,4.04
2016-04-27T00:18:49.905Z,4.07
2016-04-27T00:20:03.625Z,4.13
2016-04-27T00:21:05.254Z,4.03
2016-04-27T00:21:50.538Z,4
2016-04-27T00:23:02.697Z,4.02
2016-04-27T00:23:49.981Z,4.02
2016-04-27T00:24:51.389Z,4.03
2016-04-27T00:25:50.033Z,4.03
2016-04-27T00:26:50.035Z,4.13
2016-04-27T00:27:56.319Z,4.12
2016-04-27T00:28:56.322Z,4.13
2016-04-27T00:29:50.091Z,4.16
2016-04-27T00:31:09.280Z,4
2016-04-27T00:31:56.408Z,4.12
2016-04-27T00:33:15.789Z,4.09
2016-04-27T00:33:50.133Z,4.18
2016-04-27T00:34:50.135Z,4.22
2016-04-27T00:35:56.435Z,4.2
2016-04-27T00:36:50.031Z,4.09
2016-04-27T00:38:02.893Z,4.24
2016-04-27T00:38:50.193Z,4.25
2016-04-27T00:39:50.242Z,4.25
2016-04-27T00:41:03.046Z,4.18
2016-04-27T00:41:56.197Z,4.13
2016-04-27T00:43:02.983Z,4.16
2016-04-27T00:43:50.221Z,4.03
2016-04-27T00:44:54.001Z,3.94
2016-04-27T00:45:50.277Z,3.71
2016-04-27T00:46:50.312Z,3.63
2016-04-27T00:47:56.579Z,3.66
2016-04-27T00:48:50.942Z,3.66
2016-04-27T00:50:09.554Z,3.59
2016-04-27T00:50:50.791Z,3.58
2016-04-27T00:51:50.465Z,3.59
2016-04-27T00:53:03.109Z,3.66
2016-04-27T00:54:21.707Z,3.61
2016-04-27T00:55:16.086Z,3.59
2016-04-27T00:56:56.729Z,3.67
2016-04-27T00:57:51.091Z,3.61
2016-04-27T00:59:03.202Z,3.61
2016-04-27T01:00:03.206Z,3.74
2016-04-27T01:01:09.739Z,3.68
2016-04-27T01:01:51.117Z,3.66
2016-04-27T01:03:16.810Z,3.45
2016-04-27T01:04:00.716Z,3.43
2016-04-27T01:05:00.719Z,3.36
2016-04-27T01:06:00.737Z,3.27
2016-04-27T01:07:01.444Z,3.22
2016-04-27T01:08:00.774Z,3.26
2016-04-27T01:09:00.776Z,3.22
2016-04-27T01:10:00.921Z,3.24
2016-04-27T01:11:13.550Z,3.19
2016-04-27T01:12:00.925Z,3.21
2016-04-27T01:13:00.834Z,3.16
2016-04-27T01:14:00.852Z,3.18
2016-04-27T01:15:00.855Z,3.05
2016-04-27T01:16:20.064Z,3.16
2016-04-27T01:17:07.126Z,3.06
2016-04-27T01:18:00.957Z,3.01
2016-04-27T01:19:00.912Z,2.97
2016-04-27T01:20:07.212Z,3.01
2016-04-27T01:21:04.106Z,2.98
2016-04-27T01:22:00.811Z,3
2016-04-27T01:23:14.230Z,2.79
2016-04-27T01:24:07.261Z,2.83
2016-04-27T01:25:01.030Z,2.87
2016-04-27T01:26:01.002Z,2.8
2016-04-27T01:27:07.286Z,2.93
2016-04-27T01:28:07.382Z,2.87
2016-04-27T01:29:01.166Z,2.75
2016-04-27T01:30:01.060Z,2.85
2016-04-27T01:31:01.188Z,2.83
2016-04-27T01:32:01.096Z,2.88
2016-04-27T01:33:07.380Z,2.76
2016-04-27T01:34:01.117Z,2.73
2016-04-27T01:35:01.167Z,2.72
2016-04-27T01:36:01.888Z,2.73
2016-04-27T01:37:04.797Z,2.73
2016-04-27T01:38:01.175Z,2.65
2016-04-27T01:39:05.630Z,2.58
2016-04-27T01:40:01.180Z,2.55
2016-04-27T01:41:01.229Z,2.62
2016-04-27T01:42:07.498Z,2.54
2016-04-27T01:43:20.456Z,2.47
2016-04-27T01:44:01.284Z,2.62
2016-04-27T01:45:01.287Z,2.47
2016-04-27T01:46:01.337Z,2.52
2016-04-27T01:47:07.574Z,2.46
2016-04-27T01:48:14.095Z,2.44
2016-04-27T01:49:01.329Z,2.43
2016-04-27T01:50:20.571Z,2.34
2016-04-27T01:51:20.291Z,2.25
2016-04-27T01:52:26.966Z,2.19
2016-04-27T01:53:01.404Z,2.19
2016-04-27T01:54:01.391Z,2.22
2016-04-27T01:55:01.409Z,2.19
2016-04-27T01:56:14.149Z,2.18
2016-04-27T01:57:02.040Z,2.22
2016-04-27T01:58:01.448Z,2.12
2016-04-27T01:59:01.482Z,2.07
2016-04-27T02:00:07.734Z,2.12
2016-04-27T02:01:01.550Z,2.21
2016-04-27T02:02:14.259Z,2.23
2016-04-27T02:03:01.587Z,2.19
2016-04-27T02:04:27.233Z,2.21
2016-04-27T02:05:11.155Z,2.21
2016-04-27T02:06:11.876Z,2.25
2016-04-27T02:07:12.301Z,2.22
2016-04-27T02:08:11.163Z,2.26
2016-04-27T02:09:23.934Z,2.28
2016-04-27T02:10:17.484Z,2.33
2016-04-27T02:11:11.203Z,2.34
2016-04-27T02:12:11.220Z,2.34
2016-04-27T02:13:11.222Z,2.36
2016-04-27T02:14:12.647Z,2.43
2016-04-27T02:15:11.260Z,2.34
2016-04-27T02:16:14.358Z,2.51
2016-04-27T02:17:11.280Z,2.43
2016-04-27T02:18:11.315Z,2.5
2016-04-27T02:19:11.318Z,2.52
2016-04-27T02:20:11.413Z,2.58
2016-04-27T02:21:13.494Z,2.52
2016-04-27T02:22:12.279Z,2.61
2016-04-27T02:23:11.375Z,2.61
2016-04-27T02:24:11.424Z,2.76
2016-04-27T02:25:12.818Z,2.7
2016-04-27T02:26:30.605Z,2.73
2016-04-27T02:27:11.433Z,2.68
2016-04-27T02:28:37.562Z,2.75
2016-04-27T02:29:11.422Z,2.75
2016-04-27T02:31:21.008Z,2.76
2016-04-27T02:32:20.995Z,2.76
2016-04-27T02:33:21.045Z,2.75
2016-04-27T02:34:21.064Z,2.83
2016-04-27T02:35:21.050Z,2.8
2016-04-27T02:36:21.007Z,2.82
2016-04-27T02:37:21.446Z,2.8
2016-04-27T02:38:33.825Z,2.88
2016-04-27T02:39:21.217Z,2.87
2016-04-27T02:40:40.330Z,2.91
2016-04-27T02:41:27.426Z,2.88
2016-04-27T02:42:46.858Z,2.93
2016-04-27T02:43:21.324Z,2.97
2016-04-27T02:44:21.243Z,2.94
2016-04-27T02:45:27.570Z,2.97
2016-04-27T02:47:49.341Z,3.03
2016-04-27T02:48:49.391Z,3.06
2016-04-27T02:49:49.394Z,3.03
2016-04-27T02:51:03.131Z,3.05
2016-04-27T02:51:49.180Z,3.03
2016-04-27T02:53:15.164Z,3.06
2016-04-27T02:53:49.689Z,3.08
2016-04-27T02:55:20.846Z,3.08
2016-04-27T02:55:49.830Z,2.97
2016-04-27T02:56:49.556Z,3.09
2016-04-27T02:57:49.579Z,3.03
2016-04-27T02:58:49.615Z,3.03
2016-04-27T02:59:49.605Z,3
2016-04-27T03:00:49.640Z,2.97
2016-04-27T03:01:49.629Z,2.95
2016-04-27T03:02:49.665Z,2.94
2016-04-27T03:03:55.965Z,3.03
2016-04-27T03:05:02.422Z,2.95
2016-04-27T03:05:49.690Z,3.03
2016-04-27T03:07:09.398Z,3.01
2016-04-27T03:07:49.729Z,3.01
2016-04-27T03:08:49.935Z,3.03
2016-04-27T03:09:49.751Z,2.94
2016-04-27T03:10:49.847Z,3.01
2016-04-27T03:11:49.803Z,2.98
2016-04-27T03:12:51.213Z,3.03
2016-04-27T03:13:49.810Z,3.03
2016-04-27T03:14:49.875Z,2.97
2016-04-27T03:15:49.830Z,3
2016-04-27T03:17:02.583Z,3.03
2016-04-27T03:17:49.867Z,3.05
2016-04-27T03:19:15.557Z,3.13
2016-04-27T03:19:59.669Z,3.13
2016-04-27T03:22:15.659Z,3.19
2016-04-27T03:23:15.833Z,3.22
2016-04-27T03:24:15.852Z,3.24
2016-04-27T03:25:15.870Z,3.19
2016-04-27T03:26:22.141Z,3.27
2016-04-27T03:27:17.313Z,3.24
2016-04-27T03:28:15.909Z,3.26
2016-04-27T03:29:28.649Z,3.26
2016-04-27T03:30:28.652Z,3.22
2016-04-27T03:31:35.139Z,3.21
2016-04-27T03:32:28.766Z,3.18
2016-04-27T03:33:16.079Z,3.21
2016-04-27T03:34:15.988Z,3.24
2016-04-27T03:35:15.991Z,3.22
2016-04-27T03:36:28.762Z,3.15
2016-04-27T03:37:16.574Z,3.27
2016-04-27T03:38:28.751Z,3.19
2016-04-27T03:39:16.064Z,3.18
2016-04-27T03:40:35.273Z,3.21
2016-04-27T03:41:19.148Z,3.21
2016-04-27T03:42:38.356Z,3.29
2016-04-27T03:43:19.168Z,3.21
2016-04-27T03:44:19.218Z,3.29
2016-04-27T03:45:31.926Z,3.26
2016-04-27T03:46:19.911Z,3.19
2016-04-27T03:47:44.917Z,3.24
2016-04-27T03:48:19.245Z,3.22
2016-04-27T03:50:21.924Z,3.18
2016-04-27T03:50:34.486Z,3.16
2016-04-27T03:51:35.256Z,3.19
2016-04-27T03:52:34.852Z,3.12
2016-04-27T03:53:34.527Z,3.13
2016-04-27T03:54:47.264Z,3.16
2016-04-27T03:55:40.813Z,3.13
2016-04-27T03:57:00.253Z,3.16
2016-04-27T03:57:47.146Z,3.13
2016-04-27T03:59:09.805Z,3.13
2016-04-27T03:59:56.918Z,3
2016-04-27T04:02:09.876Z,3.11
2016-04-27T04:02:44.176Z,3.03
2016-04-27T04:04:46.962Z,3.11
2016-04-27T04:04:59.619Z,3.16
2016-04-27T04:05:59.638Z,3.19
2016-04-27T04:07:06.030Z,3.24
2016-04-27T04:07:59.861Z,3.24
2016-04-27T04:09:12.396Z,3.21
2016-04-27T04:10:05.977Z,3.26
2016-04-27T04:11:18.948Z,3.27
2016-04-27T04:12:15.608Z,3.24
2016-04-27T04:13:02.891Z,3.3
2016-04-27T04:14:02.893Z,3.29
2016-04-27T04:15:22.115Z,3.37
2016-04-27T04:16:02.946Z,3.34
2016-04-27T04:17:34.264Z,3.34
2016-04-27T04:18:18.155Z,3.34
2016-04-27T04:19:43.832Z,3.4
2016-04-27T04:20:18.801Z,3.41
2016-04-27T04:22:21.138Z,3.37
2016-04-27T04:22:35.266Z,3.43
2016-04-27T04:23:34.627Z,3.48
2016-04-27T04:24:36.833Z,3.49
2016-04-27T04:25:41.101Z,3.45
2016-04-27T04:26:34.730Z,3.46
2016-04-27T04:27:53.904Z,3.53
2016-04-27T04:28:34.938Z,3.5
2016-04-27T04:31:10.585Z,3.45
2016-04-27T04:31:44.899Z,3.56
2016-04-27T04:32:44.918Z,3.53
2016-04-27T04:33:44.935Z,3.55
2016-04-27T04:34:51.220Z,3.5
2016-04-27T04:35:45.003Z,3.55
2016-04-27T04:36:58.334Z,3.52
2016-04-27T04:37:52.649Z,3.56
2016-04-27T04:39:10.684Z,3.53
2016-04-27T04:40:00.873Z,3.63
2016-04-27T04:40:54.626Z,3.55
2016-04-27T04:42:00.910Z,3.53
2016-04-27T04:42:54.662Z,3.58
2016-04-27T04:43:54.901Z,3.58
2016-04-27T04:45:07.418Z,3.71
2016-04-27T04:46:01.109Z,3.67
2016-04-27T04:47:13.908Z,3.61
2016-04-27T04:48:07.442Z,3.7
2016-04-27T04:49:13.929Z,3.68
2016-04-27T04:49:54.744Z,3.59
2016-04-27T04:50:54.778Z,3.63
2016-04-27T04:52:11.484Z,3.71
2016-04-27T04:52:58.768Z,3.73
2016-04-27T04:53:58.772Z,3.81
2016-04-27T04:54:58.805Z,3.74
2016-04-27T04:55:58.854Z,3.81
2016-04-27T04:56:58.825Z,3.82
2016-04-27T04:57:58.860Z,3.85
2016-04-27T04:58:58.846Z,3.82
2016-04-27T05:00:11.677Z,3.99
2016-04-27T05:01:05.134Z,3.95
2016-04-27T05:02:18.011Z,4.06
2016-04-27T05:03:14.624Z,4.02
2016-04-27T05:04:21.157Z,4.02
2016-04-27T05:05:33.725Z,4
2016-04-27T05:06:34.337Z,4.07
2016-04-27T05:07:05.056Z,4.07
2016-04-27T05:08:17.809Z,4.07
2016-04-27T05:09:05.139Z,4.16
2016-04-27T05:10:24.314Z,4.18
2016-04-27T05:11:05.160Z,4.2
2016-04-27T05:12:36.432Z,4.38
2016-04-27T05:13:20.307Z,4.32
2016-04-27T05:14:20.340Z,4.32
2016-04-27T05:15:20.953Z,4.36
2016-04-27T05:16:21.392Z,4.39
2016-04-27T05:17:20.348Z,4.4
2016-04-27T05:18:20.381Z,4.43
2016-04-27T05:19:20.400Z,4.45
2016-04-27T05:20:20.403Z,4.4
2016-04-27T05:21:20.500Z,4.49
2016-04-27T05:22:20.425Z,4.49
2016-04-27T05:23:20.442Z,4.5
2016-04-27T05:24:33.182Z,4.48
2016-04-27T05:25:20.463Z,4.52
2016-04-27T05:26:39.719Z,4.43
2016-04-27T05:27:33.252Z,4.48
2016-04-27T05:28:20.518Z,4.32
2016-04-27T05:30:19.383Z,4.4
2016-04-27T05:30:51.011Z,4.52
2016-04-27T05:31:38.327Z,4.5
2016-04-27T05:32:38.407Z,4.61
2016-04-27T05:33:38.347Z,4.63
2016-04-27T05:34:39.146Z,4.63
2016-04-27T05:35:51.087Z,4.78
2016-04-27T05:36:39.074Z,4.86
2016-04-27T05:38:04.140Z,4.87
2016-04-27T05:38:39.048Z,4.97
2016-04-27T05:39:38.410Z,5.02
2016-04-27T05:40:38.429Z,5.13
2016-04-27T05:41:39.040Z,5.16
2016-04-27T05:42:39.074Z,5.23
2016-04-27T05:43:51.280Z,5.28
2016-04-27T05:44:45.439Z,5.36
2016-04-27T05:45:57.848Z,5.43
2016-04-27T05:47:00.976Z,5.54
2016-04-27T05:47:41.760Z,5.49
2016-04-27T05:48:41.747Z,5.44
2016-04-27T05:49:41.781Z,5.61
2016-04-27T05:50:41.877Z,5.64
2016-04-27T05:51:54.520Z,5.69
2016-04-27T05:52:41.930Z,5.84
2016-04-27T05:54:01.323Z,5.9
2016-04-27T05:54:41.966Z,5.99
2016-04-27T05:55:41.859Z,6.02
2016-04-27T05:56:54.628Z,6.1
2016-04-27T05:58:41.930Z,5.88
2016-04-27T05:59:41.933Z,5.79
2016-04-27T06:00:41.951Z,5.69
2016-04-27T06:01:41.969Z,5.52
2016-04-27T06:02:41.972Z,5.51
2016-04-27T06:03:42.100Z,5.54
2016-04-27T06:04:42.008Z,5.54
2016-04-27T06:05:42.199Z,5.56
2016-04-27T06:06:48.326Z,5.65
2016-04-27T06:07:42.751Z,5.62
2016-04-27T06:08:42.066Z,5.64
2016-04-27T06:09:42.225Z,5.64
2016-04-27T06:10:48.369Z,5.56
2016-04-27T06:11:42.152Z,5.7
2016-04-27T06:12:42.124Z,5.62
2016-04-27T06:13:48.424Z,5.58
2016-04-27T06:14:42.457Z,5.55
2016-04-27T06:16:01.382Z,5.56
2016-04-27T06:16:45.353Z,5.52
2016-04-27T06:18:51.406Z,5.61
2016-04-27T06:19:51.283Z,5.67
2016-04-27T06:20:52.302Z,5.7
2016-04-27T06:21:51.804Z,5.79
2016-04-27T06:23:04.167Z,5.94
2016-04-27T06:23:51.576Z,6.02
2016-04-27T06:24:53.609Z,6.06
2016-04-27T06:26:04.253Z,6.15
2016-04-27T06:27:00.817Z,6.12
2016-04-27T06:28:10.539Z,6.16
2016-04-27T06:29:17.339Z,6.16
2016-04-27T06:29:51.560Z,6.17
2016-04-27T06:30:51.594Z,6.28
2016-04-27T06:31:51.613Z,6.2
2016-04-27T06:32:51.615Z,6.1
2016-04-27T06:34:04.368Z,6.12
2016-04-27T06:34:51.636Z,5.99
2016-04-27T06:35:51.685Z,5.91
2016-04-27T06:37:04.360Z,5.79
2016-04-27T06:37:52.456Z,5.8
2016-04-27T06:39:10.929Z,5.72
2016-04-27T06:40:07.556Z,5.72
2016-04-27T06:40:54.824Z,5.72
2016-04-27T06:42:20.577Z,5.59
2016-04-27T06:42:54.845Z,5.72
2016-04-27T06:43:55.473Z,5.73
2016-04-27T06:44:55.085Z,5.84
2016-04-27T06:46:01.243Z,5.98
2016-04-27T06:46:55.106Z,5.98
2016-04-27T06:47:54.921Z,5.99
2016-04-27T06:48:55.393Z,5.95
2016-04-27T06:50:01.318Z,6.02
2016-04-27T06:50:54.976Z,6.05
2016-04-27T06:51:58.791Z,6.06
2016-04-27T06:53:07.607Z,6.1
2016-04-27T06:54:07.750Z,6.28
2016-04-27T06:54:55.034Z,6.29
2016-04-27T06:57:06.430Z,6.57
2016-04-27T06:58:06.464Z,6.75
2016-04-27T06:59:12.701Z,6.83
2016-04-27T07:00:06.453Z,6.93
2016-04-27T07:01:25.675Z,6.92
2016-04-27T07:02:19.225Z,6.85
2016-04-27T07:03:06.493Z,6.9
2016-04-27T07:04:25.714Z,7
2016-04-27T07:05:37.829Z,7.05
2016-04-27T07:06:32.238Z,7.11
2016-04-27T07:07:07.332Z,7.13
2016-04-27T07:08:38.400Z,7.37
2016-04-27T07:09:17.447Z,7.32
2016-04-27T07:10:48.702Z,7.33
2016-04-27T07:11:17.421Z,7.29
2016-04-27T07:12:17.424Z,7.23
2016-04-27T07:13:17.426Z,7.18
2016-04-27T07:14:17.460Z,7.05
2016-04-27T07:15:17.493Z,7.05
2016-04-27T07:16:17.496Z,6.92
2016-04-27T07:17:17.515Z,6.89
2016-04-27T07:18:17.549Z,6.78
2016-04-27T07:19:17.568Z,6.89
2016-04-27T07:20:17.617Z,6.95
2016-04-27T07:21:18.229Z,7.07
2016-04-27T07:22:18.356Z,7.03
2016-04-27T07:23:17.515Z,7.04
2016-04-27T07:24:17.845Z,7.15
2016-04-27T07:25:17.662Z,7.37
2016-04-27T07:26:17.726Z,7.43
2016-04-27T07:27:17.697Z,7.5
2016-04-27T07:28:30.436Z,7.81
2016-04-27T07:29:17.578Z,8.26
2016-04-27T07:30:17.736Z,8.6
2016-04-27T07:31:17.756Z,8.69
2016-04-27T07:32:30.508Z,8.66
2016-04-27T07:33:18.386Z,8.5
2016-04-27T07:34:17.811Z,8.46
2016-04-27T07:35:17.829Z,8.41
2016-04-27T07:36:17.847Z,8.28
2016-04-27T07:37:17.975Z,8.27
2016-04-27T07:38:17.571Z,8.32
2016-04-27T07:39:17.918Z,8.34
2016-04-27T07:40:30.639Z,8.41
2016-04-27T07:41:17.923Z,8.44
2016-04-27T07:42:37.163Z,8.78
2016-04-27T07:43:18.554Z,8.99
2016-04-27T07:44:17.963Z,9.16
2016-04-27T07:45:17.996Z,9.45
2016-04-27T07:46:17.998Z,9.58
2016-04-27T07:47:18.018Z,9.82
2016-04-27T07:48:24.333Z,9.77
2016-04-27T07:49:18.070Z,9.73
2016-04-27T07:50:30.807Z,9.56
2016-04-27T07:51:18.090Z,9.29
2016-04-27T07:52:18.812Z,9.02
2016-04-27T07:53:18.159Z,8.89
2016-04-27T07:54:18.380Z,8.6
2016-04-27T07:55:18.320Z,8.45
2016-04-27T07:56:18.354Z,8.23
2016-04-27T07:57:24.622Z,8.05
2016-04-27T07:58:18.531Z,7.85
2016-04-27T07:59:18.627Z,7.72
2016-04-27T08:00:18.364Z,7.55
2016-04-27T08:01:18.555Z,7.25
2016-04-27T08:02:24.605Z,7.15
2016-04-27T08:03:24.576Z,7.21
2016-04-27T08:04:24.719Z,7.26
2016-04-27T08:05:18.691Z,7.15
2016-04-27T08:06:37.603Z,7.22
2016-04-27T08:07:22.697Z,7.15
2016-04-27T08:08:40.686Z,7.33
2016-04-27T08:09:22.171Z,7.44
2016-04-27T08:11:32.504Z,7.69
2016-04-27T08:12:32.538Z,7.83
2016-04-27T08:13:32.540Z,8.03
2016-04-27T08:14:32.559Z,8.32
2016-04-27T08:15:32.562Z,8.42
2016-04-27T08:17:03.895Z,8.34
2016-04-27T08:17:42.148Z,8.39
2016-04-27T08:18:42.165Z,8.61
2016-04-27T08:19:42.763Z,8.69
2016-04-27T08:20:48.562Z,8.84
2016-04-27T08:21:44.534Z,8.9
2016-04-27T08:22:43.224Z,8.99
2016-04-27T08:23:42.242Z,9.03
2016-04-27T08:25:01.604Z,9.05
2016-04-27T08:25:48.622Z,9.13
2016-04-27T08:27:07.953Z,9.16
2016-04-27T08:27:42.330Z,9.22
2016-04-27T08:28:42.350Z,9.13
2016-04-27T08:29:42.430Z,9.13
2016-04-27T08:30:48.683Z,9.49
2016-04-27T08:31:50.092Z,9.67
2016-04-27T08:32:55.138Z,9.72
2016-04-27T08:34:01.814Z,9.8
2016-04-27T08:35:01.644Z,9.82
2016-04-27T08:35:42.458Z,9.97
2016-04-27T08:36:44.962Z,10.39
2016-04-27T08:37:42.792Z,10.79
2016-04-27T08:38:42.499Z,11.35
2016-04-27T08:39:48.891Z,11.83
2016-04-27T08:40:48.816Z,12.07
2016-04-27T08:41:46.788Z,12.25
2016-04-27T08:42:42.602Z,12.66
2016-04-27T08:43:42.605Z,12.73
2016-04-27T08:44:42.623Z,12.62
2016-04-27T08:45:42.643Z,12.68
2016-04-27T08:46:42.660Z,12.63
2016-04-27T08:47:42.678Z,12.48
2016-04-27T08:48:42.713Z,12.28
2016-04-27T08:49:42.731Z,12
2016-04-27T08:50:44.171Z,11.8
2016-04-27T08:51:49.034Z,11.34
2016-04-27T08:52:58.332Z,11
2016-04-27T08:53:42.851Z,10.89
2016-04-27T08:55:08.478Z,10.84
2016-04-27T08:55:52.466Z,10.82
2016-04-27T08:57:11.640Z,10.62
2016-04-27T08:57:58.861Z,10.62
2016-04-27T09:00:02.242Z,10.86
2016-04-27T09:00:21.226Z,10.98
2016-04-27T09:01:21.151Z,11.27
2016-04-27T09:02:14.888Z,11.26
2016-04-27T09:03:27.625Z,11.2
2016-04-27T09:04:15.550Z,10.98
2016-04-27T09:05:14.944Z,10.84
2016-04-27T09:06:27.680Z,10.71
2016-04-27T09:07:16.292Z,10.61
2016-04-27T09:08:14.998Z,10.48
2016-04-27T09:09:15.125Z,10.45
2016-04-27T09:10:27.785Z,10.76
2016-04-27T09:11:27.897Z,10.75
2016-04-27T09:12:15.681Z,10.9
2016-04-27T09:13:40.871Z,11.27
2016-04-27T09:14:24.748Z,11.33
2016-04-27T09:15:24.782Z,11.43
2016-04-27T09:16:24.785Z,11.58
2016-04-27T09:17:50.479Z,11.73
2016-04-27T09:18:31.088Z,11.89
2016-04-27T09:19:56.155Z,12.12
2016-04-27T09:20:46.346Z,12.3
2016-04-27T09:22:06.160Z,12.5
2016-04-27T09:22:52.867Z,12.53
2016-04-27T09:23:40.163Z,12.32
2016-04-27T09:24:40.151Z,12.25
2016-04-27T09:25:40.793Z,11.89
2016-04-27T09:26:52.939Z,11.8
2016-04-27T09:27:40.252Z,11.22
2016-04-27T09:28:40.240Z,11.19
2016-04-27T09:29:46.511Z,11.05
2016-04-27T09:30:40.261Z,11.1
2016-04-27T09:31:59.641Z,11.12
2016-04-27T09:32:40.297Z,11.16
2016-04-27T09:34:06.022Z,11.16
2016-04-27T09:34:46.617Z,11.2
2016-04-27T09:36:11.683Z,11.07
2016-04-27T09:36:49.170Z,11.23
2016-04-27T09:37:40.623Z,11.58
2016-04-27T09:38:59.660Z,11.93
2016-04-27T09:39:46.771Z,11.97
2016-04-27T09:41:06.150Z,12.23
2016-04-27T09:41:55.714Z,12.25
2016-04-27T09:42:40.355Z,12.23
2016-04-27T09:43:53.283Z,12.23
2016-04-27T09:44:46.816Z,12.18
2016-04-27T09:45:40.582Z,12.05
2016-04-27T09:46:40.585Z,12.18
2016-04-27T09:47:40.588Z,12.3
2016-04-27T09:48:40.652Z,12.45
2016-04-27T09:49:40.702Z,12.73
2016-04-27T09:50:53.396Z,12.76
2016-04-27T09:51:40.786Z,12.75
2016-04-27T09:53:06.635Z,12.4
2016-04-27T09:53:50.529Z,12.11
2016-04-27T09:54:50.453Z,11.78
2016-04-27T09:55:50.455Z,11.52
2016-04-27T09:56:56.771Z,11.2
2016-04-27T09:58:03.242Z,11.07
2016-04-27T09:58:50.542Z,11.01
2016-04-27T09:59:50.560Z,11.02
2016-04-27T10:01:03.312Z,11.33
2016-04-27T10:02:21.909Z,11.71
2016-04-27T10:03:09.818Z,11.86
2016-04-27T10:03:50.617Z,12.08
2016-04-27T10:05:16.308Z,12.44
2016-04-27T10:05:54.748Z,12.73
2016-04-27T10:06:58.454Z,13.03
2016-04-27T10:08:00.863Z,13.06
2016-04-27T10:08:54.818Z,13.06
2016-04-27T10:10:14.025Z,13.09
2016-04-27T10:11:07.589Z,13.19
2016-04-27T10:12:20.560Z,13.24
2016-04-27T10:13:14.095Z,13.08
2016-04-27T10:14:55.069Z,12.9
2016-04-27T10:15:55.102Z,12.73
2016-04-27T10:17:07.856Z,12.35
2016-04-27T10:17:55.796Z,12.21
2016-04-27T10:19:52.083Z,11.97
2016-04-27T10:20:17.427Z,12.02
2016-04-27T10:21:23.710Z,11.91
2016-04-27T10:22:17.280Z,11.95
2016-04-27T10:23:37.045Z,11.96
2016-04-27T10:24:17.486Z,11.97
2016-04-27T10:25:17.613Z,12
2016-04-27T10:26:23.804Z,11.93
2016-04-27T10:27:17.759Z,12.08
2016-04-27T10:28:30.170Z,11.99
2016-04-27T10:29:23.844Z,11.77
2016-04-27T10:30:43.331Z,11.55
2016-04-27T10:31:17.646Z,11.55
2016-04-27T10:32:43.336Z,11.33
2016-04-27T10:33:27.308Z,11.27
2016-04-27T10:34:27.311Z,11.37
2016-04-27T10:35:40.064Z,11.59
2016-04-27T10:36:27.331Z,11.65
2016-04-27T10:37:28.162Z,11.86
2016-04-27T10:38:29.384Z,12.05
2016-04-27T10:39:27.386Z,12.29
2016-04-27T10:40:40.155Z,12.39
2016-04-27T10:41:33.907Z,12.63
2016-04-27T10:42:52.381Z,12.7
2016-04-27T10:43:46.728Z,12.94
2016-04-27T10:44:30.478Z,13.05
2016-04-27T10:45:32.449Z,13.33
2016-04-27T10:46:30.499Z,13.82
2016-04-27T10:47:30.517Z,13.8
2016-04-27T10:48:30.724Z,13.83
2016-04-27T10:49:30.554Z,13.46
2016-04-27T10:50:30.791Z,13.36
2016-04-27T10:51:30.825Z,13.11
2016-04-27T10:52:31.577Z,12.91
2016-04-27T10:53:30.674Z,12.33
2016-04-27T10:54:30.677Z,11.89
2016-04-27T10:55:37.008Z,11.65
2016-04-27T10:56:30.698Z,11.34
2016-04-27T10:57:30.700Z,10.95
2016-04-27T10:58:36.985Z,10.89
2016-04-27T10:59:43.487Z,10.67
2016-04-27T11:00:30.806Z,10.51
2016-04-27T11:01:43.527Z,10.41
2016-04-27T11:02:43.577Z,10.21
2016-04-27T11:03:30.846Z,9.97
2016-04-27T11:04:30.833Z,9.91
2016-04-27T11:05:30.867Z,9.82
2016-04-27T11:06:43.635Z,9.63
2016-04-27T11:07:30.934Z,9.55
2016-04-27T11:08:57.330Z,9.45
2016-04-27T11:09:37.237Z,9.18
2016-04-27T11:11:02.289Z,8.34
2016-04-27T11:11:46.227Z,8.52
2016-04-27T11:12:46.198Z,8.54
2016-04-27T11:13:58.969Z,8.78
2016-04-27T11:14:46.235Z,9.11
2016-04-27T11:15:59.006Z,9.3
2016-04-27T11:16:59.023Z,9.44
2016-04-27T11:17:46.289Z,9.45
2016-04-27T11:18:46.324Z,9.39
2016-04-27T11:19:46.326Z,9.34
2016-04-27T11:20:59.144Z,9.66
2016-04-27T11:21:46.800Z,9.82
2016-04-27T11:22:59.587Z,9.94
2016-04-27T11:23:47.025Z,10.06
2016-04-27T11:25:12.108Z,10.34
2016-04-27T11:25:57.376Z,10.36
2016-04-27T11:26:58.394Z,10.53
2016-04-27T11:28:10.178Z,10.77
2016-04-27T11:28:57.478Z,10.87
2016-04-27T11:30:23.137Z,10.95
2016-04-27T11:30:58.125Z,11
2016-04-27T11:31:57.517Z,11.13
2016-04-27T11:32:57.520Z,11.35
2016-04-27T11:33:58.194Z,11.48
2016-04-27T11:35:03.853Z,11.59
2016-04-27T11:35:57.591Z,11.77
2016-04-27T11:37:03.891Z,11.62
2016-04-27T11:37:58.378Z,11.74
2016-04-27T11:38:58.880Z,11.88
2016-04-27T11:40:00.695Z,12.07
2016-04-27T11:40:58.323Z,12.33
2016-04-27T11:41:58.294Z,12.58
2016-04-27T11:42:57.735Z,12.73
2016-04-27T11:44:04.034Z,12.81
2016-04-27T11:44:57.787Z,12.73
2016-04-27T11:46:10.523Z,12.75
2016-04-27T11:46:58.026Z,12.36
2016-04-27T11:48:17.029Z,12
2016-04-27T11:49:04.372Z,11.74
2016-04-27T11:49:57.966Z,11.53
2016-04-27T11:51:05.717Z,11.4
2016-04-27T11:51:58.202Z,11.35
2016-04-27T11:52:58.171Z,11.45
2016-04-27T11:53:58.827Z,11.52
2016-04-27T11:54:58.440Z,11.71
2016-04-27T11:55:58.349Z,11.85
2016-04-27T11:56:58.289Z,11.91
2016-04-27T11:57:58.339Z,11.6
2016-04-27T11:58:58.351Z,10.64
2016-04-27T11:59:58.407Z,9.44
2016-04-27T12:00:58.415Z,8.42
2016-04-27T12:02:11.173Z,7.43
2016-04-27T12:03:11.229Z,6.9
2016-04-27T12:04:24.174Z,6.59
2016-04-27T12:04:58.616Z,6.5
2016-04-27T12:05:58.527Z,6.34
2016-04-27T12:06:58.594Z,6.25
2016-04-27T12:07:58.427Z,6.16
2016-04-27T12:09:04.869Z,6.38
2016-04-27T12:09:58.607Z,6.53
2016-04-27T12:11:11.377Z,6.9
2016-04-27T12:12:00.067Z,7.08
2016-04-27T12:13:55.668Z,7.48
2016-04-27T12:14:33.949Z,7.69
2016-04-27T12:15:27.593Z,7.84
2016-04-27T12:16:40.986Z,8.23
2016-04-27T12:17:27.489Z,8.38
2016-04-27T12:18:08.320Z,8.63
2016-04-27T12:19:11.635Z,8.86
2016-04-27T12:20:08.373Z,9.11
2016-04-27T12:21:11.422Z,9.31
2016-04-27T12:22:14.659Z,9.42
2016-04-27T12:23:14.693Z,9.24
2016-04-27T12:24:08.306Z,9.59
2016-04-27T12:25:27.668Z,9.91
2016-04-27T12:26:08.452Z,10.07
2016-04-27T12:27:08.485Z,10.3
2016-04-27T12:28:14.785Z,10.65
2016-04-27T12:29:08.521Z,10.83
2016-04-27T12:30:08.384Z,11.08
2016-04-27T12:31:14.824Z,11.33
2016-04-27T12:32:08.577Z,11.53
2016-04-27T12:33:08.657Z,11.81
2016-04-27T12:34:08.645Z,11.93
2016-04-27T12:35:08.679Z,11.95
2016-04-27T12:36:14.931Z,11.96
2016-04-27T12:37:08.778Z,11.86
2016-04-27T12:38:10.203Z,11.83
2016-04-27T12:39:11.002Z,11.67
2016-04-27T12:40:08.724Z,11.58
2016-04-27T12:41:11.789Z,11.26
2016-04-27T12:42:15.651Z,11.01
2016-04-27T12:43:08.794Z,10.53
2016-04-27T12:44:08.797Z,10.2
2016-04-27T12:45:08.675Z,10.12
2016-04-27T12:46:08.911Z,10.06
2016-04-27T12:47:15.258Z,10.05
2016-04-27T12:48:08.948Z,10.02
2016-04-27T12:49:08.919Z,10.05
2016-04-27T12:50:09.563Z,10.05
2016-04-27T12:51:08.972Z,9.85
2016-04-27T12:52:21.724Z,9.8
2016-04-27T12:53:22.461Z,9.7
2016-04-27T12:54:09.183Z,9.82
2016-04-27T12:55:09.638Z,9.82
2016-04-27T12:56:21.766Z,10.07
2016-04-27T12:57:09.082Z,10.17
2016-04-27T12:58:09.110Z,10.07
2016-04-27T12:59:09.144Z,10.12
2016-04-27T13:00:09.724Z,10.43
2016-04-27T13:01:21.961Z,10.72
2016-04-27T13:02:21.902Z,10.41
2016-04-27T13:03:34.857Z,10.65
2016-04-27T13:04:18.751Z,10.69
2016-04-27T13:05:18.785Z,10.76
2016-04-27T13:06:25.037Z,10.79
2016-04-27T13:07:25.071Z,11.25
2016-04-27T13:08:20.245Z,11.19
2016-04-27T13:09:31.592Z,11.51
2016-04-27T13:10:18.861Z,11.49
2016-04-27T13:11:18.895Z,11.23
2016-04-27T13:12:18.914Z,10.89
2016-04-27T13:13:19.525Z,10.64
2016-04-27T13:14:19.559Z,10.39
2016-04-27T13:15:25.828Z,10.28
2016-04-27T13:16:31.799Z,10.2
2016-04-27T13:17:18.255Z,10.18
2016-04-27T13:18:31.789Z,9.95
2016-04-27T13:19:18.917Z,9.9
2016-04-27T13:20:38.372Z,9.97
2016-04-27T13:21:19.094Z,10.09
2016-04-27T13:22:19.221Z,10.09
2016-04-27T13:23:32.036Z,10.3
2016-04-27T13:24:19.774Z,10.51
2016-04-27T13:25:38.370Z,10.72
2016-04-27T13:26:19.185Z,10.72
2016-04-27T13:27:19.204Z,10.76
2016-04-27T13:28:19.222Z,10.55
2016-04-27T13:29:19.849Z,10.46
2016-04-27T13:30:19.259Z,10.43
2016-04-27T13:31:20.761Z,10.38
2016-04-27T13:32:19.310Z,10.41